createdAt,value
2016-09-03T00:04:26.729Z,"  -70"
2016-09-03T00:09:23.244Z,"  -73"
2016-09-03T00:14:20.238Z,"  -71"
2016-09-03T00:19:16.816Z,"  -72"
2016-09-03T00:24:13.314Z,"  -71"
2016-09-03T00:29:09.918Z,"  -72"
2016-09-03T00:34:06.475Z,"  -72"
2016-09-03T00:39:03.007Z,"  -72"
2016-09-03T00:43:59.746Z,"  -73"
2016-09-03T00:48:56.318Z,"  -71"
2016-09-03T00:53:52.974Z,"  -71"
2016-09-03T00:58:49.576Z,"  -72"
2016-09-03T01:03:46.664Z,"  -72"
2016-09-03T01:08:44.798Z,"  -72"
2016-09-03T01:13:41.202Z,"  -73"
2016-09-03T01:18:37.904Z,"  -74"
2016-09-03T01:23:34.460Z,"  -75"
2016-09-03T01:28:30.975Z,"  -72"
2016-09-03T01:33:27.568Z,"  -74"
2016-09-03T01:38:24.183Z,"  -72"
2016-09-03T01:43:20.800Z,"  -72"
2016-09-03T01:48:17.353Z,"  -73"
2016-09-03T01:53:13.951Z,"  -70"
2016-09-03T01:58:10.758Z,"  -71"
2016-09-03T02:03:07.849Z,"  -72"
2016-09-03T02:08:05.056Z,"  -73"
2016-09-03T02:13:01.393Z,"  -71"
2016-09-03T02:17:57.943Z,"  -72"
2016-09-03T02:22:56.781Z,"  -71"
2016-09-03T02:27:52.818Z,"  -72"
2016-09-03T02:32:49.295Z,"  -72"
2016-09-03T02:37:46.002Z,"  -71"
2016-09-03T02:42:42.629Z,"  -72"
2016-09-03T02:47:39.107Z,"  -70"
2016-09-03T02:52:38.573Z,"  -71"
2016-09-03T02:57:34.589Z,"  -71"
2016-09-03T03:02:31.243Z,"  -70"
2016-09-03T03:07:27.837Z,"  -72"
2016-09-03T03:12:24.618Z,"  -71"
2016-09-03T03:17:21.091Z,"  -71"
2016-09-03T03:22:18.149Z,"  -70"
2016-09-03T03:27:14.713Z,"  -71"
2016-09-03T03:32:11.370Z,"  -72"
2016-09-03T03:37:08.236Z,"  -71"
2016-09-03T03:42:04.882Z,"  -71"
2016-09-03T03:47:01.351Z,"  -71"
2016-09-03T03:51:58.278Z,"  -72"
2016-09-03T03:56:54.977Z,"  -72"
2016-09-03T04:01:51.358Z,"  -72"
2016-09-03T04:06:48.225Z,"  -71"
2016-09-03T04:11:44.593Z,"  -71"
2016-09-03T04:16:41.143Z,"  -71"
2016-09-03T04:21:37.863Z,"  -70"
2016-09-03T04:26:34.316Z,"  -71"
2016-09-03T04:31:30.730Z,"  -71"
2016-09-03T04:36:27.389Z,"  -72"
2016-09-03T04:41:24.020Z,"  -70"
2016-09-03T04:46:20.878Z,"  -72"
2016-09-03T04:51:17.527Z,"  -71"
2016-09-03T04:56:13.923Z,"  -75"
2016-09-03T05:01:10.453Z,"  -74"
2016-09-03T05:06:07.299Z,"  -74"
2016-09-03T05:11:03.910Z,"  -74"
2016-09-03T05:16:00.428Z,"  -73"
2016-09-03T05:20:56.943Z,"  -73"
2016-09-03T05:25:53.623Z,"  -73"
2016-09-03T05:30:50.097Z,"  -73"
2016-09-03T05:35:48.186Z,"  -75"
2016-09-03T05:40:44.384Z,"  -71"
2016-09-03T05:45:41.137Z,"  -72"
2016-09-03T05:50:40.428Z,"  -71"
2016-09-03T05:55:36.195Z,"  -71"
2016-09-03T06:00:33.180Z,"  -73"
2016-09-03T06:05:30.156Z,"  -72"
2016-09-03T06:10:26.776Z,"  -71"
2016-09-03T06:15:23.441Z,"  -71"
2016-09-03T06:20:20.052Z,"  -72"
2016-09-03T06:25:16.739Z,"  -71"
2016-09-03T06:30:13.515Z,"  -71"
2016-09-03T06:35:10.118Z,"  -72"
2016-09-03T06:40:07.184Z,"  -71"
2016-09-03T06:45:04.290Z,"  -70"
2016-09-03T06:50:00.902Z,"  -71"
2016-09-03T06:54:57.694Z,"  -70"
2016-09-03T06:59:54.933Z,"  -72"
2016-09-03T07:04:51.473Z,"  -73"
2016-09-03T07:09:47.966Z,"  -72"
2016-09-03T07:14:44.537Z,"  -72"
2016-09-03T07:19:41.313Z,"  -72"
2016-09-03T07:24:39.525Z,"  -72"
2016-09-03T07:29:36.371Z,"  -72"
2016-09-03T07:34:33.306Z,"  -71"
2016-09-03T07:39:30.214Z,"  -70"
2016-09-03T07:44:27.191Z,"  -72"
2016-09-03T07:49:24.145Z,"  -71"
2016-09-03T07:54:21.262Z,"  -71"
2016-09-03T07:59:19.600Z,"  -71"
2016-09-03T08:04:16.256Z,"  -71"
2016-09-03T08:09:13.193Z,"  -71"
2016-09-03T08:14:13.117Z,"  -71"
2016-09-03T08:19:09.181Z,"  -71"
2016-09-03T08:24:05.793Z,"  -70"
2016-09-03T08:29:02.272Z,"  -71"
2016-09-03T08:33:58.998Z,"  -70"
2016-09-03T08:38:55.686Z,"  -71"
2016-09-03T08:43:52.585Z,"  -71"
2016-09-03T08:48:49.089Z,"  -73"
2016-09-03T08:53:45.626Z,"  -69"
2016-09-03T08:58:42.354Z,"  -73"
2016-09-03T09:03:38.908Z,"  -72"
2016-09-03T09:08:35.378Z,"  -73"
2016-09-03T09:13:31.929Z,"  -72"
2016-09-03T09:18:28.408Z,"  -71"
2016-09-03T09:23:24.927Z,"  -72"
2016-09-03T09:28:21.953Z,"  -71"
2016-09-03T09:33:18.629Z,"  -70"
2016-09-03T09:38:15.202Z,"  -71"
2016-09-03T09:43:12.699Z,"  -71"
2016-09-03T09:48:09.477Z,"  -75"
2016-09-03T09:53:06.209Z,"  -74"
2016-09-03T09:58:02.873Z,"  -75"
2016-09-03T10:03:02.379Z,"  -74"
2016-09-03T10:07:58.470Z,"  -73"
2016-09-03T10:12:55.044Z,"  -72"
2016-09-03T10:17:51.711Z,"  -75"
2016-09-03T10:22:48.487Z,"  -75"
2016-09-03T10:27:45.137Z,"  -75"
2016-09-03T10:32:41.918Z,"  -75"
2016-09-03T10:37:38.971Z,"  -71"
2016-09-03T10:42:35.837Z,"  -73"
2016-09-03T10:47:32.443Z,"  -74"
2016-09-03T10:52:31.594Z,"  -74"
2016-09-03T10:57:27.668Z,"  -76"
2016-09-03T11:02:24.440Z,"  -71"
2016-09-03T11:07:21.218Z,"  -74"
2016-09-03T11:12:20.249Z,"  -75"
2016-09-03T11:17:16.330Z,"  -73"
2016-09-03T11:22:13.033Z,"  -74"
2016-09-03T11:27:09.989Z,"  -74"
2016-09-03T11:32:08.352Z,"  -72"
2016-09-03T11:37:04.698Z,"  -73"
2016-09-03T11:42:01.382Z,"  -76"
2016-09-03T11:46:58.103Z,"  -75"
2016-09-03T11:51:54.783Z,"  -76"
2016-09-03T11:56:51.607Z,"  -77"
2016-09-03T12:01:48.361Z,"  -72"
2016-09-03T12:06:45.062Z,"  -74"
2016-09-03T12:11:41.810Z,"  -74"
2016-09-03T12:16:38.649Z,"  -71"
2016-09-03T12:21:36.901Z,"  -71"
2016-09-03T12:26:33.382Z,"  -73"
2016-09-03T12:31:30.650Z,"  -71"
2016-09-03T12:36:27.161Z,"  -71"
2016-09-03T12:41:25.455Z,"  -70"
2016-09-03T12:46:21.679Z,"  -70"
2016-09-03T12:51:18.272Z,"  -70"
2016-09-03T12:56:14.877Z,"  -73"
2016-09-03T13:01:11.607Z,"  -72"
2016-09-03T13:06:08.146Z,"  -69"
2016-09-03T13:11:05.139Z,"  -72"
2016-09-03T13:16:01.798Z,"  -72"
2016-09-03T13:20:58.409Z,"  -71"
2016-09-03T13:25:56.135Z,"  -71"
2016-09-03T13:30:52.661Z,"  -71"
2016-09-03T13:35:49.332Z,"  -72"
2016-09-03T13:40:46.495Z,"  -70"
2016-09-03T13:45:43.151Z,"  -71"
2016-09-03T13:50:39.801Z,"  -72"
2016-09-03T13:55:36.892Z,"  -70"
2016-09-03T14:00:33.470Z,"  -71"
2016-09-03T14:05:30.162Z,"  -71"
2016-09-03T14:10:26.725Z,"  -70"
2016-09-03T14:15:23.524Z,"  -71"
2016-09-03T14:20:20.175Z,"  -71"
2016-09-03T14:25:17.368Z,"  -72"
2016-09-03T14:30:16.447Z,"  -70"
2016-09-03T14:35:12.626Z,"  -72"
2016-09-03T14:40:09.666Z,"  -71"
2016-09-03T14:45:06.258Z,"  -71"
2016-09-03T14:50:02.907Z,"  -75"
2016-09-03T14:54:59.586Z,"  -71"
2016-09-03T14:59:57.219Z,"  -78"
2016-09-03T15:04:54.146Z,"  -73"
2016-09-03T15:09:50.673Z,"  -71"
2016-09-03T15:14:47.273Z,"  -73"
2016-09-03T15:19:43.919Z,"  -73"
2016-09-03T15:24:40.600Z,"  -73"
2016-09-03T15:29:37.502Z,"  -75"
2016-09-03T15:34:34.264Z,"  -74"
2016-09-03T15:39:31.007Z,"  -71"
2016-09-03T15:44:27.704Z,"  -75"
2016-09-03T15:49:25.577Z,"  -74"
2016-09-03T15:54:22.072Z,"  -78"
2016-09-03T15:59:18.823Z,"  -75"
2016-09-03T16:04:15.429Z,"  -74"
2016-09-03T16:09:11.854Z,"  -73"
2016-09-03T16:14:08.703Z,"  -71"
2016-09-03T16:19:05.844Z,"  -73"
2016-09-03T16:24:02.506Z,"  -73"
2016-09-03T16:28:58.961Z,"  -75"
2016-09-03T16:33:55.809Z,"  -74"
2016-09-03T16:38:53.062Z,"  -73"
2016-09-03T16:43:49.657Z,"  -73"
2016-09-03T16:48:46.166Z,"  -73"
2016-09-03T16:53:42.684Z,"  -70"
2016-09-03T16:58:39.474Z,"  -71"
2016-09-03T17:03:36.605Z,"  -71"
2016-09-03T17:08:35.894Z,"  -73"
2016-09-03T17:13:31.998Z,"  -69"
2016-09-03T17:18:28.654Z,"  -72"
2016-09-03T17:23:24.954Z,"  -71"
2016-09-03T17:33:21.699Z,"  -69"
2016-09-03T17:38:18.324Z,"  -66"
2016-09-03T17:43:15.152Z,"  -68"
2016-09-03T17:48:13.227Z,"  -70"
2016-09-03T17:53:09.570Z,"  -68"
2016-09-03T17:58:06.293Z,"  -70"
2016-09-03T18:03:03.066Z,"  -69"
2016-09-03T18:07:59.828Z,"  -70"
2016-09-03T18:12:56.418Z,"  -69"
2016-09-03T18:17:53.490Z,"  -69"
2016-09-03T18:22:50.097Z,"  -70"
2016-09-03T18:27:47.036Z,"  -70"
2016-09-03T18:32:43.579Z,"  -69"
2016-09-03T18:37:40.490Z,"  -69"
2016-09-03T18:42:36.897Z,"  -69"
2016-09-03T18:47:33.472Z,"  -69"
2016-09-03T18:52:29.975Z,"  -69"
2016-09-03T18:57:26.547Z,"  -69"
2016-09-03T19:02:23.114Z,"  -69"
2016-09-03T19:07:19.747Z,"  -69"
2016-09-03T19:12:16.367Z,"  -69"
2016-09-03T19:17:14.320Z,"  -69"
2016-09-03T19:22:10.652Z,"  -69"
2016-09-03T19:27:07.438Z,"  -70"
2016-09-03T19:32:05.266Z,"  -69"
2016-09-03T19:37:01.566Z,"  -70"
2016-09-03T19:41:58.187Z,"  -69"
2016-09-03T19:46:55.197Z,"  -69"
2016-09-03T19:51:52.080Z,"  -69"
2016-09-03T19:56:49.014Z,"  -69"
2016-09-03T20:01:45.727Z,"  -70"
2016-09-03T20:06:42.393Z,"  -69"
2016-09-03T20:11:40.438Z,"  -69"
2016-09-03T20:16:36.772Z,"  -69"
2016-09-03T20:21:33.887Z,"  -69"
2016-09-03T20:26:30.935Z,"  -69"
2016-09-03T20:31:27.514Z,"  -70"
2016-09-03T20:36:24.097Z,"  -69"
2016-09-03T20:41:20.555Z,"  -69"
2016-09-03T20:46:17.173Z,"  -69"
2016-09-03T20:51:14.213Z,"  -70"
2016-09-03T20:56:10.838Z,"  -69"
2016-09-03T21:01:07.563Z,"  -69"
2016-09-03T21:06:04.118Z,"  -69"
2016-09-03T21:11:01.113Z,"  -69"
2016-09-03T21:15:57.706Z,"  -69"
2016-09-03T21:20:54.287Z,"  -68"
2016-09-03T21:25:51.248Z,"  -69"
2016-09-03T21:30:47.950Z,"  -69"
2016-09-03T21:35:44.534Z,"  -70"
2016-09-03T21:40:44.024Z,"  -69"
2016-09-03T21:45:40.087Z,"  -69"
2016-09-03T21:50:36.759Z,"  -69"
2016-09-03T21:55:33.425Z,"  -70"
2016-09-03T22:00:30.223Z,"  -69"
2016-09-03T22:05:27.287Z,"  -69"
2016-09-03T22:10:23.861Z,"  -69"
2016-09-03T22:15:20.439Z,"  -69"
2016-09-03T22:20:16.891Z,"  -69"
2016-09-03T22:25:13.610Z,"  -70"
2016-09-03T22:30:10.369Z,"  -69"
2016-09-03T22:35:07.352Z,"  -69"
2016-09-03T22:40:04.130Z,"  -69"
2016-09-03T22:45:00.743Z,"  -69"
2016-09-03T22:49:58.868Z,"  -69"
2016-09-03T22:54:55.207Z,"  -70"
2016-09-03T22:59:52.021Z,"  -70"
2016-09-03T23:04:48.778Z,"  -70"
2016-09-03T23:09:45.286Z,"  -69"
2016-09-03T23:14:41.836Z,"  -69"
2016-09-03T23:19:38.506Z,"  -69"
2016-09-03T23:24:35.146Z,"  -70"
2016-09-03T23:29:31.619Z,"  -68"
2016-09-03T23:34:28.298Z,"  -68"
2016-09-03T23:39:25.195Z,"  -69"
2016-09-03T23:44:21.626Z,"  -69"
2016-09-03T23:49:18.196Z,"  -69"
2016-09-03T23:54:14.835Z,"  -68"
2016-09-03T23:59:11.427Z,"  -69"
